createdAt,value
2023-04-11T05:03:21.466Z,437.00
2023-04-11T05:04:21.393Z,429.00
2023-04-11T05:05:22.316Z,434.00
2023-04-11T05:06:22.350Z,432.00
2023-04-11T05:07:22.377Z,432.00
2023-04-11T05:08:22.418Z,433.00
2023-04-11T05:09:22.424Z,432.00
2023-04-11T05:10:22.427Z,434.00
2023-04-11T05:11:22.488Z,436.00
2023-04-11T05:12:22.527Z,434.00
2023-04-11T05:13:21.599Z,436.00
2023-04-11T05:14:22.653Z,442.00
2023-04-11T05:15:22.733Z,459.00
2023-04-11T05:16:22.810Z,455.00
2023-04-11T05:17:24.597Z,459.00
2023-04-11T05:18:22.886Z,460.00
2023-04-11T05:19:22.854Z,459.00
2023-04-11T05:20:22.833Z,460.00
2023-04-11T05:21:22.808Z,453.00
2023-04-11T05:22:22.812Z,479.00
2023-04-11T05:23:22.812Z,483.00
2023-04-11T05:24:21.796Z,441.00
2023-04-11T05:25:22.793Z,465.00
2023-04-11T05:26:22.788Z,472.00
2023-04-11T05:27:22.771Z,472.00
2023-04-11T05:28:22.767Z,455.00
2023-04-11T05:29:22.755Z,466.00
2023-04-11T05:30:21.742Z,466.00
2023-04-11T05:31:22.927Z,487.00
2023-04-11T05:32:21.761Z,487.00
2023-04-11T05:33:21.750Z,601.00
2023-04-11T05:34:22.827Z,522.00
2023-04-11T05:35:22.719Z,501.00
2023-04-11T05:36:22.719Z,496.00
2023-04-11T05:37:22.709Z,511.00
2023-04-11T05:38:22.698Z,502.00
2023-04-11T05:39:22.689Z,513.00
2023-04-11T05:40:22.684Z,613.00
2023-04-11T05:41:22.673Z,576.00
2023-04-11T05:42:22.665Z,569.00
2023-04-11T05:43:22.672Z,588.00
2023-04-11T05:44:22.668Z,623.00
2023-04-11T05:45:22.667Z,639.00
2023-04-11T05:46:22.705Z,675.00
2023-04-11T05:47:22.642Z,687.00
2023-04-11T05:48:22.625Z,691.00
2023-04-11T05:49:22.610Z,686.00
2023-04-11T05:50:22.627Z,774.00
2023-04-11T05:51:22.608Z,771.00
2023-04-11T05:52:22.618Z,800.00
2023-04-11T05:53:22.578Z,773.00
2023-04-11T05:54:22.585Z,823.00
2023-04-11T05:55:22.576Z,894.00
2023-04-11T05:56:22.585Z,876.00
2023-04-11T05:57:21.568Z,967.00
2023-04-11T05:58:22.552Z,1024.00
2023-04-11T05:59:26.400Z,1021.00
2023-04-11T06:00:22.559Z,1049.00
2023-04-11T06:01:21.521Z,841.00
2023-04-11T06:02:22.584Z,867.00
2023-04-11T06:03:21.667Z,910.00
2023-04-11T06:04:22.740Z,959.00
2023-04-11T06:05:21.492Z,921.00
2023-04-11T06:06:22.507Z,887.00
2023-04-11T06:07:22.500Z,869.00
2023-04-11T06:08:21.548Z,849.00
2023-04-11T06:09:22.476Z,823.00
2023-04-11T06:10:22.459Z,811.00
2023-04-11T06:11:21.450Z,809.00
2023-04-11T06:12:22.459Z,810.00
2023-04-11T06:13:21.442Z,796.00
2023-04-11T06:14:21.425Z,793.00
2023-04-11T06:15:22.430Z,777.00
2023-04-11T06:16:22.450Z,791.00
2023-04-11T06:17:22.457Z,792.00
2023-04-11T06:18:22.417Z,663.00
2023-04-11T06:19:22.407Z,632.00
2023-04-11T06:20:22.480Z,665.00
2023-04-11T06:21:21.382Z,671.00
2023-04-11T06:22:21.446Z,723.00
2023-04-11T06:23:22.375Z,797.00
2023-04-11T06:24:22.380Z,809.00
2023-04-11T06:25:22.354Z,819.00
2023-04-11T06:26:22.348Z,870.00
2023-04-11T06:27:22.342Z,883.00
2023-04-11T06:28:22.373Z,923.00
2023-04-11T06:29:22.329Z,957.00
2023-04-11T06:30:21.315Z,976.00
2023-04-11T06:31:22.315Z,1012.00
2023-04-11T06:32:21.316Z,1037.00
2023-04-11T06:33:22.319Z,1046.00
2023-04-11T06:34:22.277Z,1056.00
2023-04-11T06:35:22.290Z,1091.00
2023-04-11T06:36:21.309Z,1102.00
2023-04-11T06:37:22.263Z,1113.00
2023-04-11T06:38:21.290Z,1130.00
2023-04-11T06:39:22.238Z,1147.00
2023-04-11T06:40:22.256Z,1168.00
2023-04-11T06:41:22.253Z,1184.00
2023-04-11T06:42:22.242Z,1198.00
2023-04-11T06:43:22.248Z,1243.00
2023-04-11T06:44:22.287Z,1248.00
2023-04-11T06:45:22.282Z,1268.00
2023-04-11T06:46:22.371Z,1282.00
2023-04-11T06:47:22.432Z,1307.00
2023-04-11T06:48:22.454Z,1324.00
2023-04-11T06:49:22.506Z,1356.00
2023-04-11T06:50:22.548Z,1373.00
2023-04-11T06:51:22.620Z,1378.00
2023-04-11T06:52:21.666Z,1405.00
2023-04-11T06:53:23.012Z,1418.00
2023-04-11T06:54:22.803Z,1438.00
2023-04-11T06:55:22.846Z,1482.00
2023-04-11T06:56:22.891Z,1457.00
2023-04-11T06:57:22.945Z,1540.00
2023-04-11T06:58:22.496Z,1574.00
2023-04-11T06:59:24.659Z,1591.00
2023-04-11T07:00:22.076Z,1586.00
2023-04-11T07:01:23.088Z,1588.00
2023-04-11T07:02:23.224Z,1499.00
2023-04-11T07:03:23.184Z,1484.00
2023-04-11T07:04:23.199Z,1446.00
2023-04-11T07:05:23.034Z,1301.00
2023-04-11T07:06:23.009Z,1342.00
2023-04-11T07:07:22.012Z,1166.00
2023-04-11T07:08:23.006Z,1348.00
2023-04-11T07:09:22.987Z,1204.00
2023-04-11T07:10:23.006Z,1277.00
2023-04-11T07:11:22.962Z,1119.00
2023-04-11T07:12:22.974Z,1288.00
2023-04-11T07:13:22.977Z,1279.00
2023-04-11T07:14:22.950Z,1263.00
2023-04-11T07:15:22.931Z,1257.00
2023-04-11T07:16:21.947Z,1074.00
2023-04-11T07:17:22.000Z,1190.00
2023-04-11T07:18:21.935Z,1194.00
2023-04-11T07:19:21.901Z,1149.00
2023-04-11T07:20:22.900Z,1148.00
2023-04-11T07:21:22.893Z,1100.00
2023-04-11T07:22:22.882Z,983.00
2023-04-11T07:23:23.842Z,1070.00
2023-04-11T07:24:22.864Z,1056.00
2023-04-11T07:25:21.882Z,1065.00
2023-04-11T07:26:21.898Z,1047.00
2023-04-11T07:27:22.835Z,1049.00
2023-04-11T07:28:22.843Z,1041.00
2023-04-11T07:29:22.828Z,1077.00
2023-04-11T07:30:21.810Z,967.00
2023-04-11T07:31:22.964Z,1039.00
2023-04-11T07:32:22.931Z,1078.00
2023-04-11T07:33:22.818Z,1063.00
2023-04-11T07:34:22.805Z,1055.00
2023-04-11T07:35:22.785Z,947.00
2023-04-11T07:36:22.798Z,1061.00
2023-04-11T07:37:22.771Z,1048.00
2023-04-11T07:38:21.770Z,1065.00
2023-04-11T07:39:22.755Z,1041.00
2023-04-11T07:40:22.758Z,1024.00
2023-04-11T07:41:21.749Z,1103.00
2023-04-11T07:42:22.860Z,1088.00
2023-04-11T07:43:22.732Z,1001.00
2023-04-11T07:44:24.111Z,1006.00
2023-04-11T07:45:22.727Z,1029.00
2023-04-11T07:46:21.711Z,974.00
2023-04-11T07:47:22.767Z,985.00
2023-04-11T07:48:23.036Z,954.00
2023-04-11T07:49:22.726Z,916.00
2023-04-11T07:50:22.797Z,931.00
2023-04-11T07:51:22.824Z,988.00
2023-04-11T07:52:22.881Z,1088.00
2023-04-11T07:53:23.027Z,1179.00
2023-04-11T07:54:22.005Z,1134.00
2023-04-11T07:55:23.061Z,1118.00
2023-04-11T07:56:23.109Z,1182.00
2023-04-11T07:57:23.110Z,1136.00
2023-04-11T07:58:23.150Z,1158.00
2023-04-11T07:59:22.119Z,1171.00
2023-04-11T08:00:23.156Z,1189.00
2023-04-11T08:01:23.115Z,1157.00
2023-04-11T08:02:23.287Z,1171.00
2023-04-11T08:03:23.555Z,1183.00
2023-04-11T08:04:23.240Z,1162.00
2023-04-11T08:05:23.294Z,1185.00
2023-04-11T08:06:22.167Z,1142.00
2023-04-11T08:07:23.183Z,1175.00
2023-04-11T08:08:23.509Z,1179.00
2023-04-11T08:09:23.177Z,1177.00
2023-04-11T08:10:22.174Z,1178.00
2023-04-11T08:11:22.167Z,1188.00
2023-04-11T08:12:22.190Z,1192.00
2023-04-11T08:13:22.199Z,1195.00
2023-04-11T08:14:22.299Z,1199.00
2023-04-11T08:15:22.189Z,1189.00
2023-04-11T08:16:22.308Z,1185.00
2023-04-11T08:17:28.336Z,1202.00
2023-04-11T08:18:23.259Z,1176.00
2023-04-11T08:19:22.184Z,1181.00
2023-04-11T08:20:23.156Z,1174.00
2023-04-11T08:21:23.168Z,1172.00
2023-04-11T08:22:22.147Z,1179.00
2023-04-11T08:23:22.145Z,1175.00
2023-04-11T08:24:23.138Z,1148.00
2023-04-11T08:25:23.136Z,1162.00
2023-04-11T08:26:23.117Z,1166.00
2023-04-11T08:27:23.117Z,1162.00
2023-04-11T08:28:22.111Z,1191.00
2023-04-11T08:29:23.114Z,1164.00
2023-04-11T08:30:22.221Z,1204.00
2023-04-11T08:31:23.241Z,1192.00
2023-04-11T08:32:23.090Z,1211.00
2023-04-11T08:33:23.062Z,1213.00
2023-04-11T08:34:22.077Z,1219.00
2023-04-11T08:35:23.057Z,1223.00
2023-04-11T08:36:22.040Z,1248.00
2023-04-11T08:37:23.047Z,1223.00
2023-04-11T08:38:23.038Z,1208.00
2023-04-11T08:39:22.040Z,1236.00
2023-04-11T08:40:22.027Z,1222.00
2023-04-11T08:41:23.017Z,1227.00
2023-04-11T08:42:23.001Z,1189.00
2023-04-11T08:43:23.010Z,1221.00
2023-04-11T08:44:23.017Z,1221.00
2023-04-11T08:45:23.010Z,1221.00
2023-04-11T08:46:22.027Z,1317.00
2023-04-11T08:47:23.072Z,1301.00
2023-04-11T08:48:22.970Z,1362.00
2023-04-11T08:49:22.958Z,1340.00
2023-04-11T08:50:22.951Z,1489.00
2023-04-11T08:51:22.932Z,1408.00
2023-04-11T08:52:22.941Z,1542.00
2023-04-11T08:53:22.913Z,1488.00
2023-04-11T08:54:22.903Z,1514.00
2023-04-11T08:55:22.907Z,1642.00
2023-04-11T08:56:22.912Z,1575.00
2023-04-11T08:57:22.878Z,1593.00
2023-04-11T08:58:22.986Z,1662.00
2023-04-11T08:59:22.890Z,1677.00
2023-04-11T09:00:21.878Z,1682.00
2023-04-11T09:01:21.923Z,1683.00
2023-04-11T09:02:23.049Z,1711.00
2023-04-11T09:03:22.030Z,1697.00
2023-04-11T09:04:21.875Z,1658.00
2023-04-11T09:05:21.844Z,1659.00
2023-04-11T09:06:21.829Z,1661.00
2023-04-11T09:07:21.821Z,1631.00
2023-04-11T09:08:22.822Z,1638.00
2023-04-11T09:09:22.816Z,1628.00
2023-04-11T09:10:22.805Z,1636.00
2023-04-11T09:11:22.828Z,1631.00
2023-04-11T09:12:21.877Z,1623.00
2023-04-11T09:13:23.004Z,1629.00
2023-04-11T09:14:22.987Z,1618.00
2023-04-11T09:15:22.016Z,1679.00
2023-04-11T09:16:22.224Z,1665.00
2023-04-11T09:17:23.155Z,1651.00
2023-04-11T09:18:23.145Z,1683.00
2023-04-11T09:19:22.197Z,1706.00
2023-04-11T09:20:23.211Z,1731.00
2023-04-11T09:21:22.200Z,1793.00
2023-04-11T09:22:22.220Z,1798.00
2023-04-11T09:23:22.250Z,1817.00
2023-04-11T09:24:23.298Z,1854.00
2023-04-11T09:25:23.334Z,1870.00
2023-04-11T09:26:24.221Z,1890.00
2023-04-11T09:27:22.254Z,1917.00
2023-04-11T09:28:23.263Z,1943.00
2023-04-11T09:29:22.272Z,1959.00
2023-04-11T09:30:23.293Z,1978.00
2023-04-11T09:31:23.304Z,2013.00
2023-04-11T09:32:22.311Z,2075.00
2023-04-11T09:33:23.292Z,2093.00
2023-04-11T09:34:23.300Z,2099.00
2023-04-11T09:35:23.255Z,2111.00
2023-04-11T09:36:23.262Z,2184.00
2023-04-11T09:37:23.270Z,2204.00
2023-04-11T09:38:23.254Z,2264.00
2023-04-11T09:39:23.280Z,2270.00
2023-04-11T09:40:23.263Z,2300.00
2023-04-11T09:41:23.245Z,2348.00
2023-04-11T09:42:22.270Z,2454.00
2023-04-11T09:43:23.249Z,2453.00
2023-04-11T09:44:23.257Z,2481.00
2023-04-11T09:45:22.299Z,2470.00
2023-04-11T09:46:23.355Z,2467.00
2023-04-11T09:47:23.375Z,2472.00
2023-04-11T09:48:29.350Z,2477.00
2023-04-11T09:49:23.546Z,2407.00
2023-04-11T09:50:23.457Z,2446.00
2023-04-11T09:51:32.299Z,2471.00
2023-04-11T09:52:23.370Z,2516.00
2023-04-11T09:53:23.320Z,2489.00
2023-04-11T09:54:24.085Z,2443.00
2023-04-11T09:55:23.312Z,2448.00
2023-04-11T09:56:22.320Z,2461.00
2023-04-11T09:57:22.301Z,2472.00
2023-04-11T09:58:23.281Z,2475.00
2023-04-11T09:59:23.292Z,2449.00
2023-04-11T10:00:23.295Z,2450.00
2023-04-11T10:01:23.312Z,2433.00
2023-04-11T10:02:22.335Z,2429.00
2023-04-11T10:03:22.393Z,2436.00
2023-04-11T10:04:22.325Z,2436.00
2023-04-11T10:05:23.375Z,2418.00
2023-04-11T10:06:23.486Z,2406.00
2023-04-11T10:07:23.480Z,2389.00
2023-04-11T10:08:23.515Z,2388.00
2023-04-11T10:09:23.546Z,2375.00
2023-04-11T10:10:23.594Z,2384.00
2023-04-11T10:11:24.147Z,2362.00
2023-04-11T10:12:22.585Z,2349.00
2023-04-11T10:13:23.606Z,2344.00
2023-04-11T10:14:22.592Z,2374.00
2023-04-11T10:15:22.590Z,2351.00
2023-04-11T10:16:23.771Z,2358.00
2023-04-11T10:17:24.610Z,2359.00
2023-04-11T10:18:22.675Z,2355.00
2023-04-11T10:19:23.584Z,2342.00
2023-04-11T10:20:23.581Z,2337.00
2023-04-11T10:21:23.566Z,2327.00
2023-04-11T10:22:23.596Z,2320.00
2023-04-11T10:23:23.596Z,2319.00
2023-04-11T10:24:23.575Z,2320.00
2023-04-11T10:25:22.600Z,2317.00
2023-04-11T10:26:23.585Z,2312.00
2023-04-11T10:27:23.595Z,2266.00
2023-04-11T10:28:23.611Z,2257.00
2023-04-11T10:29:23.596Z,2258.00
2023-04-11T10:30:23.602Z,2262.00
2023-04-11T10:31:23.643Z,2263.00
2023-04-11T10:32:23.672Z,2262.00
2023-04-11T10:33:23.598Z,2246.00
2023-04-11T10:34:23.610Z,2190.00
2023-04-11T10:35:23.604Z,2234.00
2023-04-11T10:36:23.637Z,2255.00
2023-04-11T10:37:22.619Z,2242.00
2023-04-11T10:38:23.658Z,2247.00
2023-04-11T10:39:22.627Z,2247.00
2023-04-11T10:40:23.620Z,2249.00
2023-04-11T10:41:22.657Z,2246.00
2023-04-11T10:42:23.621Z,2235.00
2023-04-11T10:43:22.631Z,2175.00
2023-04-11T10:44:24.089Z,2115.00
2023-04-11T10:45:23.640Z,2115.00
2023-04-11T10:46:23.711Z,2136.00
2023-04-11T10:47:23.646Z,2137.00
2023-04-11T10:48:23.676Z,2136.00
2023-04-11T10:49:23.088Z,2155.00
2023-04-11T10:50:23.644Z,2158.00
2023-04-11T10:51:22.635Z,2173.00
2023-04-11T10:52:23.681Z,2248.00
2023-04-11T10:53:23.638Z,2242.00
2023-04-11T10:54:23.682Z,2245.00
2023-04-11T10:55:23.634Z,2187.00
2023-04-11T10:56:22.650Z,2054.00
2023-04-11T10:57:22.728Z,2056.00
2023-04-11T10:58:22.632Z,2061.00
2023-04-11T10:59:23.638Z,2090.00
2023-04-11T11:00:23.655Z,2150.00
2023-04-11T11:01:32.100Z,2171.00
2023-04-11T11:02:23.737Z,2185.00
2023-04-11T11:03:23.747Z,2207.00
2023-04-11T11:04:23.727Z,2199.00
2023-04-11T11:05:22.621Z,2123.00
2023-04-11T11:06:22.613Z,2096.00
2023-04-11T11:07:23.591Z,2088.00
2023-04-11T11:08:22.633Z,2085.00
2023-04-11T11:09:23.673Z,2112.00
2023-04-11T11:10:23.597Z,2099.00
2023-04-11T11:11:22.569Z,2089.00
2023-04-11T11:12:22.568Z,2093.00
2023-04-11T11:13:22.580Z,2064.00
2023-04-11T11:14:23.546Z,2040.00
2023-04-11T11:15:23.530Z,2082.00
2023-04-11T11:16:22.564Z,2070.00
2023-04-11T11:17:23.586Z,2037.00
2023-04-11T11:18:22.508Z,2056.00
2023-04-11T11:19:23.498Z,2068.00
2023-04-11T11:20:23.498Z,2071.00
2023-04-11T11:21:27.362Z,2073.00
2023-04-11T11:22:23.505Z,2035.00
2023-04-11T11:23:23.528Z,2037.00
2023-04-11T11:24:22.554Z,2048.00
2023-04-11T11:25:23.528Z,2088.00
2023-04-11T11:26:23.570Z,2102.00
2023-04-11T11:27:23.697Z,2109.00
2023-04-11T11:28:23.557Z,2128.00
2023-04-11T11:29:23.557Z,2138.00
2023-04-11T11:30:23.587Z,2123.00
2023-04-11T11:31:23.605Z,2112.00
2023-04-11T11:32:23.631Z,2114.00
2023-04-11T11:33:23.601Z,2102.00
2023-04-11T11:34:24.353Z,2097.00
2023-04-11T11:35:22.616Z,2086.00
2023-04-11T11:36:23.637Z,2003.00
2023-04-11T11:37:22.631Z,1971.00
2023-04-11T11:38:22.660Z,2063.00
2023-04-11T11:39:24.091Z,2064.00
2023-04-11T11:40:23.674Z,2074.00
2023-04-11T11:41:22.662Z,2071.00
2023-04-11T11:42:22.756Z,2067.00
2023-04-11T11:43:23.681Z,2080.00
2023-04-11T11:44:23.704Z,2105.00
2023-04-11T11:45:23.737Z,2103.00
2023-04-11T11:46:23.788Z,2105.00
2023-04-11T11:47:23.756Z,2116.00
2023-04-11T11:48:22.722Z,2177.00
2023-04-11T11:49:23.825Z,2171.00
2023-04-11T11:50:22.789Z,2177.00
2023-04-11T11:51:23.757Z,2172.00
2023-04-11T11:52:22.765Z,2187.00
2023-04-11T11:53:23.758Z,2184.00
2023-04-11T11:54:23.786Z,2181.00
2023-04-11T11:55:22.778Z,2183.00
2023-04-11T11:56:23.801Z,2175.00
2023-04-11T11:57:22.948Z,2157.00
2023-04-11T11:58:23.836Z,2092.00
2023-04-11T11:59:23.854Z,2099.00
2023-04-11T12:00:23.816Z,2115.00
2023-04-11T12:01:23.856Z,2117.00
2023-04-11T12:02:23.005Z,2116.00
2023-04-11T12:03:24.020Z,2121.00
2023-04-11T12:04:24.038Z,2129.00
2023-04-11T12:05:22.913Z,2137.00
2023-04-11T12:06:23.893Z,2143.00
2023-04-11T12:07:22.913Z,2146.00
2023-04-11T12:08:23.908Z,2141.00
2023-04-11T12:09:23.955Z,2141.00
2023-04-11T12:10:23.939Z,2139.00
2023-04-11T12:11:23.929Z,2137.00
2023-04-11T12:12:23.946Z,2141.00
2023-04-11T12:13:23.961Z,2138.00
2023-04-11T12:14:24.063Z,2138.00
2023-04-11T12:15:22.999Z,2142.00
2023-04-11T12:16:24.185Z,2144.00
2023-04-11T12:17:24.019Z,2140.00
2023-04-11T12:18:24.035Z,2137.00
2023-04-11T12:19:24.088Z,2141.00
2023-04-11T12:20:24.196Z,2134.00
2023-04-11T12:21:23.081Z,2128.00
2023-04-11T12:22:23.089Z,2129.00
2023-04-11T12:23:23.140Z,2133.00
2023-04-11T12:24:23.117Z,2136.00
2023-04-11T12:25:24.142Z,2144.00
2023-04-11T12:26:24.160Z,2146.00
2023-04-11T12:27:24.155Z,2141.00
2023-04-11T12:28:24.193Z,2135.00
2023-04-11T12:29:23.183Z,2134.00
2023-04-11T12:30:24.255Z,2141.00
2023-04-11T12:31:24.256Z,2143.00
2023-04-11T12:32:24.268Z,2162.00
2023-04-11T12:33:24.264Z,2140.00
2023-04-11T12:34:23.259Z,2140.00
2023-04-11T12:35:24.266Z,2144.00
2023-04-11T12:36:24.294Z,2172.00
2023-04-11T12:37:24.285Z,2187.00
2023-04-11T12:38:23.301Z,2180.00
2023-04-11T12:39:23.304Z,2173.00
2023-04-11T12:40:24.346Z,2178.00
2023-04-11T12:41:32.379Z,2170.00
2023-04-11T12:42:27.244Z,2164.00
2023-04-11T12:43:24.341Z,2157.00
2023-04-11T12:44:23.316Z,2150.00
2023-04-11T12:45:24.328Z,2150.00
2023-04-11T12:46:24.445Z,2144.00
2023-04-11T12:47:24.387Z,2150.00
2023-04-11T12:48:24.286Z,2155.00
2023-04-11T12:49:24.285Z,2149.00
2023-04-11T12:50:24.580Z,2142.00
2023-04-11T12:51:23.263Z,2148.00
2023-04-11T12:52:24.264Z,2150.00
2023-04-11T12:53:25.123Z,2146.00
2023-04-11T12:54:24.249Z,2138.00
2023-04-11T12:55:24.300Z,2130.00
2023-04-11T12:56:23.224Z,2132.00
2023-04-11T12:57:24.244Z,2128.00
2023-04-11T12:58:24.210Z,2126.00
2023-04-11T12:59:24.207Z,2129.00
2023-04-11T13:00:23.217Z,2130.00
2023-04-11T13:01:24.237Z,2134.00
2023-04-11T13:02:23.338Z,2137.00
2023-04-11T13:03:24.354Z,2138.00
2023-04-11T13:04:23.291Z,2131.00
2023-04-11T13:05:24.183Z,2131.00
2023-04-11T13:06:23.174Z,2125.00
2023-04-11T13:07:24.168Z,2123.00
2023-04-11T13:08:24.153Z,2122.00
2023-04-11T13:09:24.143Z,2119.00
2023-04-11T13:10:23.144Z,2120.00
2023-04-11T13:11:23.145Z,2123.00
2023-04-11T13:12:24.116Z,2124.00
2023-04-11T13:13:24.126Z,2123.00
2023-04-11T13:14:24.131Z,2134.00
2023-04-11T13:15:24.110Z,2127.00
2023-04-11T13:16:24.141Z,2127.00
2023-04-11T13:17:24.192Z,2127.00
2023-04-11T13:18:24.110Z,2129.00
2023-04-11T13:19:24.091Z,2130.00
2023-04-11T13:20:24.069Z,2114.00
2023-04-11T13:21:23.073Z,2106.00
2023-04-11T13:22:23.104Z,2114.00
2023-04-11T13:23:23.123Z,2115.00
2023-04-11T13:24:24.118Z,2114.00
2023-04-11T13:25:24.141Z,2111.00
2023-04-11T13:26:24.162Z,2102.00
2023-04-11T13:27:24.181Z,2099.00
2023-04-11T13:28:24.208Z,2094.00
2023-04-11T13:29:24.259Z,2091.00
2023-04-11T13:30:23.261Z,2096.00
2023-04-11T13:31:24.278Z,2091.00
2023-04-11T13:32:24.308Z,2094.00
2023-04-11T13:33:23.278Z,2098.00
2023-04-11T13:34:24.350Z,2093.00
2023-04-11T13:35:26.171Z,2094.00
2023-04-11T13:36:24.326Z,2094.00
2023-04-11T13:37:23.306Z,2088.00
2023-04-11T13:38:23.293Z,2090.00
2023-04-11T13:39:24.285Z,2087.00
2023-04-11T13:40:24.309Z,2086.00
2023-04-11T13:41:24.310Z,2084.00
2023-04-11T13:42:23.291Z,2081.00
2023-04-11T13:43:23.266Z,2080.00
2023-04-11T13:44:24.251Z,2080.00
2023-04-11T13:45:24.291Z,2079.00
2023-04-11T13:46:24.240Z,2075.00
2023-04-11T13:47:24.299Z,2083.00
2023-04-11T13:48:24.229Z,2088.00
2023-04-11T13:49:23.210Z,2083.00
2023-04-11T13:50:23.234Z,2083.00
2023-04-11T13:51:23.204Z,2086.00
2023-04-11T13:52:23.211Z,2080.00
2023-04-11T13:53:24.206Z,2074.00
2023-04-11T13:54:23.224Z,2075.00
2023-04-11T13:55:24.182Z,2081.00
2023-04-11T13:56:24.166Z,2083.00
2023-04-11T13:57:23.164Z,2075.00
2023-04-11T13:58:24.154Z,2072.00
2023-04-11T13:59:23.132Z,2066.00
2023-04-11T14:00:23.141Z,2055.00
2023-04-11T14:01:24.181Z,2057.00
2023-04-11T14:02:24.179Z,2059.00
2023-04-11T14:03:24.233Z,2051.00
2023-04-11T14:04:24.144Z,2047.00
2023-04-11T14:05:24.115Z,2048.00
2023-04-11T14:06:24.119Z,2040.00
2023-04-11T14:07:23.094Z,2044.00
2023-04-11T14:08:24.091Z,2046.00
2023-04-11T14:09:24.097Z,2048.00
2023-04-11T14:10:24.075Z,2045.00
2023-04-11T14:11:24.057Z,2047.00
2023-04-11T14:12:24.048Z,2053.00
2023-04-11T14:13:24.076Z,2052.00
2023-04-11T14:14:24.096Z,2058.00
2023-04-11T14:15:23.127Z,2057.00
2023-04-11T14:16:23.168Z,2085.00
2023-04-11T14:17:24.216Z,2074.00
2023-04-11T14:18:24.234Z,2078.00
2023-04-11T14:19:24.255Z,2074.00
2023-04-11T14:20:23.293Z,2065.00
2023-04-11T14:21:24.335Z,2051.00
2023-04-11T14:22:23.389Z,2043.00
2023-04-11T14:23:23.370Z,2037.00
2023-04-11T14:24:24.401Z,2031.00
2023-04-11T14:25:24.419Z,2036.00
2023-04-11T14:26:24.453Z,2033.00
2023-04-11T14:27:23.502Z,2028.00
2023-04-11T14:28:26.578Z,2014.00
2023-04-11T14:29:24.497Z,2013.00
2023-04-11T14:30:24.605Z,2011.00
2023-04-11T14:31:24.622Z,2016.00
2023-04-11T14:32:23.505Z,2014.00
2023-04-11T14:33:24.484Z,2015.00
2023-04-11T14:34:23.500Z,2016.00
2023-04-11T14:35:23.461Z,2014.00
2023-04-11T14:36:24.493Z,2015.00
2023-04-11T14:37:24.445Z,2018.00
2023-04-11T14:38:23.679Z,2017.00
2023-04-11T14:39:24.429Z,2020.00
2023-04-11T14:40:24.465Z,2014.00
2023-04-11T14:41:24.425Z,2015.00
2023-04-11T14:42:24.418Z,2016.00
2023-04-11T14:43:23.410Z,2015.00
2023-04-11T14:44:23.410Z,2014.00
2023-04-11T14:45:24.386Z,2013.00
2023-04-11T14:46:24.386Z,2013.00
2023-04-11T14:47:24.392Z,2009.00
2023-04-11T14:48:24.370Z,2005.00
2023-04-11T14:49:23.360Z,2010.00
2023-04-11T14:50:24.752Z,2010.00
2023-04-11T14:51:24.334Z,2010.00
2023-04-11T14:52:24.337Z,2014.00
2023-04-11T14:53:23.331Z,2009.00
2023-04-11T14:54:24.358Z,2001.00
2023-04-11T14:55:24.360Z,1997.00
2023-04-11T14:56:24.386Z,1995.00
2023-04-11T14:57:23.397Z,1996.00
2023-04-11T14:58:24.423Z,2001.00
2023-04-11T14:59:23.453Z,1992.00
2023-04-11T15:00:23.476Z,1989.00
2023-04-11T15:01:24.555Z,1990.00
2023-04-11T15:02:24.751Z,1984.00
2023-04-11T15:03:23.842Z,1979.00
2023-04-11T15:04:24.741Z,1982.00
2023-04-11T15:05:24.635Z,1988.00
2023-04-11T15:06:24.682Z,1990.00
2023-04-11T15:07:23.700Z,1996.00
2023-04-11T15:08:23.738Z,2000.00
2023-04-11T15:09:24.753Z,1996.00
2023-04-11T15:10:24.852Z,1997.00
2023-04-11T15:11:24.856Z,2015.00
2023-04-11T15:12:24.868Z,2138.00
2023-04-11T15:13:24.924Z,2022.00
2023-04-11T15:14:23.925Z,2030.00
2023-04-11T15:15:24.990Z,2044.00
2023-04-11T15:16:24.096Z,2009.00
2023-04-11T15:17:24.069Z,2078.00
2023-04-11T15:18:25.076Z,2069.00
2023-04-11T15:19:25.108Z,2046.00
2023-04-11T15:20:25.189Z,2000.00
2023-04-11T15:21:25.189Z,1978.00
2023-04-11T15:22:25.222Z,1931.00
2023-04-11T15:23:24.256Z,1939.00
2023-04-11T15:24:25.297Z,1937.00
2023-04-11T15:25:24.314Z,1941.00
2023-04-11T15:26:25.393Z,1937.00
2023-04-11T15:27:25.390Z,1937.00
2023-04-11T15:28:24.444Z,1944.00
2023-04-11T15:29:24.477Z,1948.00
